Terminal Aerodrome Forecast
Issued by NWS

Current Version | Previous Version | Graphics & Text | Print | Product List | Glossary On
Versions: 1 2 3 4 5 6 7 8 9 10 11 12 13 14 15 16 17 18 19 20 21
000
FTUS41 KILN 281942 AAB
TAFLCK
TAF AMD
KLCK 281942Z 2820/2918 20010KT P6SM VCSH SCT040 BKN150
      TEMPO 2820/2822 VRB20G30KT 4SM -TSRA BKN040CB OVC100
     FM282200 22009KT P6SM VCTS BKN040CB BKN120
     FM282300 19003KT P6SM BKN060 BKN200
     FM291400 20008KT P6SM SCT100 BKN200=

USA.gov is the U.S. government's official web portal to all federal, state and local government web resources and services.